createdAt,value
2023-01-30T00:01:42.278Z,95.46
2023-01-30T00:03:47.924Z,95.79
2023-01-30T00:05:51.571Z,95.30
2023-01-30T00:07:55.049Z,96.42
2023-01-30T00:09:58.672Z,97.20
2023-01-30T00:12:02.072Z,97.07
2023-01-30T00:14:05.535Z,95.68
2023-01-30T00:16:10.572Z,95.60
2023-01-30T00:18:14.036Z,95.99
2023-01-30T00:20:19.403Z,96.57
2023-01-30T00:22:22.969Z,96.83
2023-01-30T00:24:26.442Z,96.71
2023-01-30T00:26:30.066Z,96.80
2023-01-30T00:28:34.120Z,96.77
2023-01-30T00:30:37.545Z,96.01
2023-01-30T00:32:41.470Z,96.48
2023-01-30T00:34:44.959Z,95.89
2023-01-30T00:36:58.911Z,95.39
2023-01-30T00:39:09.965Z,95.27
2023-01-30T00:41:15.295Z,94.91
2023-01-30T00:43:38.739Z,95.98
2023-01-30T00:46:03.797Z,95.71
2023-01-30T00:48:08.068Z,95.59
2023-01-30T00:50:12.414Z,95.74
2023-01-30T00:52:18.460Z,96.53
2023-01-30T00:54:21.947Z,95.90
2023-01-30T00:56:25.551Z,96.44
2023-01-30T00:58:29.229Z,96.98
2023-01-30T01:00:33.102Z,96.57
2023-01-30T01:02:36.664Z,95.74
2023-01-30T01:04:43.416Z,95.49
2023-01-30T01:06:47.882Z,96.68
2023-01-30T01:08:52.871Z,95.54
2023-01-30T01:10:56.577Z,96.83
2023-01-30T01:13:00.000Z,96.96
2023-01-30T01:15:03.915Z,96.16
2023-01-30T01:17:07.873Z,97.09
2023-01-30T01:19:11.309Z,96.91
2023-01-30T01:21:20.214Z,97.09
2023-01-30T01:23:24.160Z,97.23
2023-01-30T01:25:29.173Z,96.34
2023-01-30T01:27:35.489Z,96.75
2023-01-30T01:29:38.976Z,96.65
2023-01-30T01:31:43.474Z,96.52
2023-01-30T01:33:47.036Z,95.54
2023-01-30T01:35:50.479Z,95.93
2023-01-30T01:37:54.612Z,96.15
2023-01-30T01:40:27.120Z,95.94
2023-01-30T01:42:37.250Z,96.36
2023-01-30T01:45:03.706Z,95.95
2023-01-30T01:47:10.615Z,96.92
2023-01-30T01:49:20.871Z,96.57
2023-01-30T01:51:30.781Z,95.97
2023-01-30T01:53:37.422Z,96.50
2023-01-30T01:55:44.605Z,96.02
2023-01-30T01:57:53.400Z,96.68
2023-01-30T02:00:04.046Z,96.15
2023-01-30T02:02:16.932Z,95.69
2023-01-30T02:04:46.843Z,95.16
2023-01-30T02:06:50.877Z,95.92
2023-01-30T02:08:59.876Z,95.76
2023-01-30T02:11:10.536Z,95.73
2023-01-30T02:13:15.361Z,95.76
2023-01-30T02:15:20.950Z,96.93
2023-01-30T02:17:24.585Z,96.46
2023-01-30T02:19:37.153Z,96.47
2023-01-30T02:22:08.839Z,95.96
2023-01-30T02:24:32.422Z,95.54
2023-01-30T02:26:58.384Z,95.78
2023-01-30T02:29:40.473Z,95.51
2023-01-30T02:31:51.428Z,96.08
2023-01-30T02:34:08.543Z,95.29
2023-01-30T02:36:21.422Z,95.36
2023-01-30T02:38:39.671Z,95.49
2023-01-30T02:40:50.290Z,96.35
2023-01-30T02:43:04.911Z,96.60
2023-01-30T02:45:17.147Z,95.96
2023-01-30T02:47:30.741Z,96.69
2023-01-30T02:49:40.017Z,97.50
2023-01-30T02:51:47.374Z,97.02
2023-01-30T02:53:52.487Z,96.89
2023-01-30T02:55:56.530Z,97.91
2023-01-30T02:58:01.319Z,98.38
2023-01-30T03:00:07.374Z,99.01
2023-01-30T03:02:28.158Z,99.63
2023-01-30T03:04:53.661Z,98.88
2023-01-30T03:07:21.153Z,98.98
2023-01-30T03:09:34.178Z,98.57
2023-01-30T03:11:48.266Z,97.80
2023-01-30T03:13:56.926Z,98.00
2023-01-30T03:16:13.501Z,97.69
2023-01-30T03:18:20.161Z,98.12
2023-01-30T03:20:23.881Z,97.96
2023-01-30T03:22:28.140Z,98.89
2023-01-30T03:24:33.904Z,99.10
2023-01-30T03:26:41.944Z,98.67
2023-01-30T03:28:49.859Z,97.73
2023-01-30T03:30:53.604Z,99.06
2023-01-30T03:32:57.840Z,98.68
2023-01-30T03:35:03.407Z,98.09
2023-01-30T03:37:07.547Z,98.11
2023-01-30T03:39:12.719Z,98.20
2023-01-30T03:41:17.077Z,98.22
2023-01-30T03:43:21.071Z,98.24
2023-01-30T03:45:24.872Z,98.66
2023-01-30T03:47:29.206Z,98.65
2023-01-30T03:49:34.176Z,98.82
2023-01-30T03:51:39.141Z,98.54
2023-01-30T03:53:42.605Z,98.31
2023-01-30T03:55:47.888Z,98.03
2023-01-30T03:57:56.816Z,98.31
2023-01-30T04:00:01.974Z,98.18
2023-01-30T04:02:08.366Z,98.38
2023-01-30T04:04:11.969Z,98.77
2023-01-30T04:06:15.816Z,98.31
2023-01-30T04:08:20.804Z,99.24
2023-01-30T04:10:25.390Z,99.21
2023-01-30T04:12:29.354Z,99.19
2023-01-30T04:14:35.548Z,99.05
2023-01-30T04:16:52.629Z,100.00
2023-01-30T04:19:21.962Z,99.87
2023-01-30T04:21:25.581Z,98.65
2023-01-30T04:23:30.532Z,99.07
2023-01-30T04:25:34.927Z,100.00
2023-01-30T04:27:44.601Z,100.00
2023-01-30T04:29:58.369Z,100.00
2023-01-30T04:32:02.828Z,99.49
2023-01-30T04:34:10.390Z,99.81
2023-01-30T04:36:14.196Z,99.60
2023-01-30T04:38:19.151Z,99.40
2023-01-30T04:40:24.215Z,100.00
2023-01-30T04:42:27.835Z,100.00
2023-01-30T04:45:00.644Z,100.00
2023-01-30T04:47:05.681Z,100.00
2023-01-30T04:49:10.974Z,100.00
2023-01-30T04:51:15.901Z,100.00
2023-01-30T04:53:21.070Z,100.00
2023-01-30T04:55:26.011Z,100.00
2023-01-30T04:57:29.866Z,100.00
2023-01-30T04:59:33.308Z,100.00
2023-01-30T05:01:41.208Z,100.00
2023-01-30T05:03:44.689Z,100.00
2023-01-30T05:05:48.944Z,100.00
2023-01-30T05:07:53.123Z,100.00
2023-01-30T05:09:56.632Z,100.00
2023-01-30T05:12:01.591Z,100.00
2023-01-30T05:14:05.187Z,100.00
2023-01-30T05:16:08.991Z,100.00
2023-01-30T05:18:12.551Z,100.00
2023-01-30T05:20:16.150Z,100.00
2023-01-30T05:22:19.858Z,100.00
2023-01-30T05:24:24.061Z,100.00
2023-01-30T05:26:27.782Z,100.00
2023-01-30T05:28:33.329Z,100.00
2023-01-30T05:30:37.755Z,100.00
2023-01-30T05:32:44.372Z,100.00
2023-01-30T05:34:49.538Z,100.00
2023-01-30T05:36:53.404Z,100.00
2023-01-30T05:38:56.893Z,100.00
2023-01-30T05:41:02.129Z,100.00
2023-01-30T05:43:05.713Z,100.00
2023-01-30T05:45:11.739Z,100.00
2023-01-30T05:47:15.129Z,100.00
2023-01-30T05:49:20.019Z,100.00
2023-01-30T05:51:25.681Z,100.00
2023-01-30T05:53:32.126Z,100.00
2023-01-30T05:55:35.801Z,100.00
2023-01-30T05:57:39.194Z,100.00
2023-01-30T05:59:42.679Z,100.00
2023-01-30T06:01:47.514Z,100.00
2023-01-30T06:03:51.475Z,100.00
2023-01-30T06:05:54.998Z,100.00
2023-01-30T06:07:58.467Z,100.00
2023-01-30T06:10:01.951Z,100.00
2023-01-30T06:12:07.547Z,100.00
2023-01-30T06:14:12.126Z,100.00
2023-01-30T06:16:17.549Z,100.00
2023-01-30T06:18:22.555Z,100.00
2023-01-30T06:20:25.982Z,100.00
2023-01-30T06:22:30.620Z,100.00
2023-01-30T06:24:34.233Z,100.00
2023-01-30T06:26:38.176Z,100.00
2023-01-30T06:28:42.763Z,100.00
2023-01-30T06:30:46.279Z,100.00
2023-01-30T06:32:52.034Z,100.00
2023-01-30T06:34:56.759Z,100.00
2023-01-30T06:37:00.876Z,100.00
2023-01-30T06:39:05.795Z,100.00
2023-01-30T06:41:09.460Z,100.00
2023-01-30T06:43:13.024Z,100.00
2023-01-30T06:45:18.451Z,100.00
2023-01-30T06:47:22.227Z,100.00
2023-01-30T06:49:25.600Z,100.00
2023-01-30T06:51:32.503Z,100.00
2023-01-30T06:53:36.635Z,100.00
2023-01-30T06:55:40.076Z,100.00
2023-01-30T06:57:44.123Z,100.00
2023-01-30T06:59:47.660Z,100.00
2023-01-30T07:01:52.530Z,100.00
2023-01-30T07:03:56.060Z,100.00
2023-01-30T07:05:59.698Z,100.00
2023-01-30T07:08:04.615Z,100.00
2023-01-30T07:10:14.208Z,100.00
2023-01-30T07:12:17.661Z,100.00
2023-01-30T07:14:21.093Z,100.00
2023-01-30T07:16:29.209Z,100.00
2023-01-30T07:18:32.807Z,100.00
2023-01-30T07:20:36.478Z,100.00
2023-01-30T07:22:40.042Z,100.00
2023-01-30T07:24:44.926Z,100.00
2023-01-30T07:26:49.288Z,100.00
2023-01-30T07:28:52.845Z,100.00
2023-01-30T07:30:56.426Z,100.00
2023-01-30T07:33:01.484Z,100.00
2023-01-30T07:35:06.094Z,100.00
2023-01-30T07:37:09.740Z,100.00
2023-01-30T07:39:13.153Z,100.00
2023-01-30T07:41:18.104Z,100.00
2023-01-30T07:43:22.040Z,100.00
2023-01-30T07:45:25.822Z,100.00
2023-01-30T07:47:30.827Z,100.00
2023-01-30T07:49:34.250Z,100.00
2023-01-30T07:51:37.766Z,100.00
2023-01-30T07:53:41.785Z,100.00
2023-01-30T07:55:45.557Z,100.00
2023-01-30T07:57:50.764Z,100.00
2023-01-30T07:59:54.217Z,100.00
2023-01-30T08:01:58.703Z,100.00
2023-01-30T08:04:03.106Z,100.00
2023-01-30T08:06:07.952Z,100.00
2023-01-30T08:08:11.367Z,100.00
2023-01-30T08:10:14.836Z,100.00
2023-01-30T08:12:18.397Z,100.00
2023-01-30T08:14:23.327Z,100.00
2023-01-30T08:16:27.057Z,100.00
2023-01-30T08:18:31.279Z,100.00
2023-01-30T08:20:35.068Z,100.00
2023-01-30T08:22:38.511Z,100.00
2023-01-30T08:24:42.336Z,100.00
2023-01-30T08:26:48.842Z,100.00
2023-01-30T08:28:52.393Z,100.00
2023-01-30T08:30:58.298Z,100.00
2023-01-30T08:33:02.187Z,100.00
2023-01-30T08:35:06.958Z,100.00
2023-01-30T08:37:10.878Z,100.00
2023-01-30T08:39:14.969Z,100.00
2023-01-30T08:41:18.472Z,100.00
2023-01-30T08:43:22.425Z,100.00
2023-01-30T08:45:26.009Z,100.00
2023-01-30T08:47:31.561Z,100.00
2023-01-30T08:49:35.225Z,100.00
2023-01-30T08:51:39.830Z,100.00
2023-01-30T08:53:43.350Z,100.00
2023-01-30T08:55:47.160Z,100.00
2023-01-30T08:57:51.333Z,100.00
2023-01-30T08:59:54.886Z,100.00
2023-01-30T09:01:58.348Z,100.00
2023-01-30T09:04:03.227Z,100.00
2023-01-30T09:06:06.931Z,100.00
2023-01-30T09:08:10.478Z,100.00
2023-01-30T09:10:15.003Z,100.00
2023-01-30T09:12:18.496Z,100.00
2023-01-30T09:14:22.343Z,100.00
2023-01-30T09:16:26.849Z,100.00
2023-01-30T09:18:30.493Z,100.00
2023-01-30T09:20:35.527Z,98.90
2023-01-30T09:22:38.994Z,98.95
2023-01-30T09:24:42.442Z,97.96
2023-01-30T09:26:46.096Z,98.35
2023-01-30T09:28:49.646Z,98.23
2023-01-30T09:30:53.518Z,96.59
2023-01-30T09:32:57.095Z,96.06
2023-01-30T09:35:00.591Z,95.68
2023-01-30T09:37:06.868Z,95.35
2023-01-30T09:39:10.821Z,94.77
2023-01-30T09:41:37.225Z,93.37
2023-01-30T09:43:55.004Z,93.42
2023-01-30T09:46:09.650Z,92.81
2023-01-30T09:48:22.171Z,91.89
2023-01-30T09:50:48.993Z,91.77
2023-01-30T09:53:01.414Z,91.07
2023-01-30T09:55:20.965Z,89.88
2023-01-30T09:57:26.679Z,88.83
2023-01-30T09:59:37.951Z,88.51
2023-01-30T10:01:51.595Z,88.34
2023-01-30T10:04:13.102Z,86.88
2023-01-30T10:06:17.311Z,86.29
2023-01-30T10:08:43.807Z,86.53
2023-01-30T10:11:00.873Z,85.82
2023-01-30T10:13:26.429Z,84.20
2023-01-30T10:15:37.593Z,84.85
2023-01-30T10:17:54.860Z,84.65
2023-01-30T10:20:26.744Z,84.50
2023-01-30T10:22:43.934Z,84.11
2023-01-30T10:25:00.931Z,82.95
2023-01-30T10:27:10.463Z,82.27
2023-01-30T10:29:19.712Z,82.91
2023-01-30T10:31:27.491Z,83.05
2023-01-30T10:33:35.762Z,83.15
2023-01-30T10:35:42.928Z,82.68
2023-01-30T10:37:53.825Z,82.27
2023-01-30T10:40:07.317Z,82.33
2023-01-30T10:42:13.691Z,81.80
2023-01-30T10:44:19.075Z,81.73
2023-01-30T10:46:37.832Z,82.06
2023-01-30T10:48:56.114Z,81.79
2023-01-30T10:51:06.888Z,80.90
2023-01-30T10:53:18.762Z,81.30
2023-01-30T10:55:37.664Z,80.74
2023-01-30T10:57:56.439Z,81.03
2023-01-30T11:00:05.112Z,79.61
2023-01-30T11:02:22.491Z,79.71
2023-01-30T11:04:32.303Z,79.75
2023-01-30T11:06:36.618Z,79.07
2023-01-30T11:08:41.014Z,79.67
2023-01-30T11:10:46.172Z,78.77
2023-01-30T11:12:54.025Z,78.97
2023-01-30T11:14:59.878Z,78.92
2023-01-30T11:17:03.871Z,78.75
2023-01-30T11:19:23.660Z,78.75
2023-01-30T11:21:42.353Z,78.37
2023-01-30T11:23:47.927Z,78.70
2023-01-30T11:26:10.161Z,78.47
2023-01-30T11:28:17.500Z,78.15
2023-01-30T11:30:23.292Z,78.12
2023-01-30T11:32:29.181Z,77.89
2023-01-30T11:34:33.663Z,78.09
2023-01-30T11:36:38.187Z,77.81
2023-01-30T11:38:58.266Z,77.94
2023-01-30T11:41:14.634Z,77.74
2023-01-30T11:43:18.429Z,77.50
2023-01-30T11:45:30.146Z,77.19
2023-01-30T11:47:34.027Z,77.65
2023-01-30T11:49:46.995Z,77.68
2023-01-30T11:52:07.820Z,77.22
2023-01-30T11:54:16.028Z,77.47
2023-01-30T11:56:25.912Z,76.89
2023-01-30T11:58:32.932Z,76.54
2023-01-30T12:00:41.052Z,76.22
2023-01-30T12:02:46.357Z,75.95
2023-01-30T12:04:54.055Z,75.91
2023-01-30T12:07:07.580Z,76.29
2023-01-30T12:09:34.448Z,75.76
2023-01-30T12:11:46.039Z,76.28
2023-01-30T12:13:51.286Z,76.44
2023-01-30T12:16:05.595Z,76.78
2023-01-30T12:18:17.435Z,76.78
2023-01-30T12:20:29.638Z,76.32
2023-01-30T12:22:40.154Z,76.17
2023-01-30T12:24:47.548Z,76.07
2023-01-30T12:26:57.546Z,76.32
2023-01-30T12:29:09.723Z,76.54
2023-01-30T12:31:20.184Z,76.96
2023-01-30T12:33:27.771Z,76.55
2023-01-30T12:35:45.445Z,75.75
2023-01-30T12:38:03.376Z,75.46
2023-01-30T12:40:21.591Z,74.88
2023-01-30T12:42:52.172Z,74.93
2023-01-30T12:45:05.971Z,75.42
2023-01-30T12:47:25.199Z,75.21
2023-01-30T12:49:44.213Z,75.07
2023-01-30T12:52:04.794Z,74.42
2023-01-30T12:54:21.244Z,74.52
2023-01-30T12:56:53.615Z,73.56
2023-01-30T12:59:05.990Z,72.18
2023-01-30T13:01:24.473Z,72.09
2023-01-30T13:03:40.897Z,70.75
2023-01-30T13:05:49.241Z,70.65
2023-01-30T13:08:07.497Z,70.56
2023-01-30T13:10:18.637Z,69.85
2023-01-30T13:12:35.465Z,69.81
2023-01-30T13:14:48.639Z,70.04
2023-01-30T13:17:11.676Z,69.34
2023-01-30T13:19:25.509Z,68.67
2023-01-30T13:21:38.112Z,68.59
2023-01-30T13:24:05.120Z,68.59
2023-01-30T13:26:11.632Z,68.87
2023-01-30T13:28:18.781Z,68.80
2023-01-30T13:30:25.615Z,69.19
2023-01-30T13:32:36.882Z,69.64
2023-01-30T13:34:44.750Z,69.70
2023-01-30T13:36:55.460Z,69.56
2023-01-30T13:39:02.917Z,68.92
2023-01-30T13:41:07.620Z,68.78
2023-01-30T13:43:20.952Z,68.63
2023-01-30T13:45:29.538Z,67.99
2023-01-30T13:47:45.010Z,68.21
2023-01-30T13:49:58.672Z,68.38
2023-01-30T13:52:08.108Z,68.67
2023-01-30T13:54:24.744Z,69.17
2023-01-30T13:56:41.380Z,68.10
2023-01-30T13:58:50.852Z,68.21
2023-01-30T14:00:56.652Z,67.91
2023-01-30T14:03:31.461Z,68.34
2023-01-30T14:06:07.374Z,68.49
2023-01-30T14:08:15.115Z,68.22
2023-01-30T14:10:23.733Z,68.22
2023-01-30T14:12:33.812Z,68.39
2023-01-30T14:14:40.050Z,68.45
2023-01-30T14:16:49.854Z,68.51
2023-01-30T14:18:53.826Z,69.01
2023-01-30T14:21:14.966Z,69.12
2023-01-30T14:23:25.667Z,68.97
2023-01-30T14:25:46.020Z,68.60
2023-01-30T14:27:52.933Z,68.44
2023-01-30T14:29:57.566Z,68.38
2023-01-30T14:32:02.904Z,68.69
2023-01-30T14:34:49.140Z,67.42
2023-01-30T14:36:54.374Z,67.59
2023-01-30T14:39:18.830Z,67.63
2023-01-30T14:41:27.863Z,66.98
2023-01-30T14:43:38.421Z,67.04
2023-01-30T14:45:49.227Z,67.31
2023-01-30T14:48:28.855Z,67.55
2023-01-30T14:50:33.832Z,66.74
2023-01-30T14:52:41.476Z,67.13
2023-01-30T14:54:51.440Z,67.29
2023-01-30T14:56:58.642Z,67.11
2023-01-30T14:59:06.385Z,67.47
2023-01-30T15:01:10.356Z,67.56
2023-01-30T15:03:21.043Z,67.42
2023-01-30T15:05:31.611Z,67.47
2023-01-30T15:07:42.950Z,67.71
2023-01-30T15:09:54.097Z,67.76
2023-01-30T15:12:17.092Z,68.05
2023-01-30T15:14:28.556Z,68.04
2023-01-30T15:16:47.535Z,68.27
2023-01-30T15:19:12.400Z,68.42
2023-01-30T15:21:37.493Z,68.54
2023-01-30T15:23:57.433Z,69.09
2023-01-30T15:26:13.874Z,69.48
2023-01-30T15:28:30.905Z,70.14
2023-01-30T15:30:57.276Z,70.67
2023-01-30T15:33:22.827Z,70.78
2023-01-30T15:35:31.669Z,71.50
2023-01-30T15:37:37.466Z,71.89
2023-01-30T15:39:41.241Z,72.33
2023-01-30T15:41:45.120Z,72.15
2023-01-30T15:44:34.437Z,72.44
2023-01-30T15:46:48.235Z,72.64
2023-01-30T15:49:07.781Z,72.93
2023-01-30T15:51:16.505Z,72.71
2023-01-30T15:53:27.439Z,72.38
2023-01-30T15:55:34.189Z,72.29
2023-01-30T15:57:40.743Z,72.26
2023-01-30T15:59:45.153Z,72.47
2023-01-30T16:01:49.506Z,72.85
2023-01-30T16:03:53.961Z,72.92
2023-01-30T16:05:58.742Z,73.19
2023-01-30T16:08:19.147Z,73.40
2023-01-30T16:10:24.937Z,73.42
2023-01-30T16:12:30.838Z,73.65
2023-01-30T16:14:34.702Z,73.89
2023-01-30T16:16:38.796Z,73.87
2023-01-30T16:18:48.816Z,74.13
2023-01-30T16:21:02.135Z,74.30
2023-01-30T16:23:21.254Z,74.02
2023-01-30T16:25:29.801Z,74.15
2023-01-30T16:27:37.268Z,74.03
2023-01-30T16:29:51.108Z,74.53
2023-01-30T16:31:55.922Z,74.57
2023-01-30T16:34:00.023Z,74.27
2023-01-30T16:36:04.773Z,74.58
2023-01-30T16:38:36.398Z,74.56
2023-01-30T16:40:47.231Z,73.76
2023-01-30T16:42:58.827Z,73.60
2023-01-30T16:45:30.195Z,73.94
2023-01-30T16:47:34.675Z,73.67
2023-01-30T16:49:45.872Z,73.41
2023-01-30T16:51:51.753Z,73.44
2023-01-30T16:54:02.472Z,73.72
2023-01-30T16:56:10.855Z,73.80
2023-01-30T16:58:18.378Z,73.43
2023-01-30T17:00:24.777Z,73.87
2023-01-30T17:02:33.987Z,74.31
2023-01-30T17:04:41.991Z,74.43
2023-01-30T17:06:54.349Z,74.20
2023-01-30T17:08:59.523Z,73.75
2023-01-30T17:11:03.714Z,73.67
2023-01-30T17:13:31.771Z,73.96
2023-01-30T17:15:36.815Z,74.10
2023-01-30T17:17:40.609Z,73.91
2023-01-30T17:19:48.501Z,74.16
2023-01-30T17:21:54.657Z,74.24
2023-01-30T17:24:02.678Z,74.52
2023-01-30T17:26:06.447Z,74.49
2023-01-30T17:28:19.642Z,74.20
2023-01-30T17:30:23.249Z,74.75
2023-01-30T17:32:26.847Z,74.77
2023-01-30T17:34:30.315Z,74.44
2023-01-30T17:36:33.886Z,74.63
2023-01-30T17:38:37.367Z,74.25
2023-01-30T17:40:43.156Z,74.09
2023-01-30T17:42:47.874Z,74.31
2023-01-30T17:44:51.364Z,74.43
2023-01-30T17:46:54.724Z,74.43
2023-01-30T17:48:58.351Z,74.29
2023-01-30T17:51:02.087Z,74.16
2023-01-30T17:53:05.722Z,73.99
2023-01-30T17:55:13.050Z,73.83
2023-01-30T17:57:17.961Z,74.31
2023-01-30T17:59:22.666Z,74.69
2023-01-30T18:01:26.411Z,74.98
2023-01-30T18:03:29.974Z,75.06
2023-01-30T18:05:33.503Z,75.16
2023-01-30T18:07:37.089Z,75.01
2023-01-30T18:09:40.559Z,74.84
2023-01-30T18:11:44.133Z,75.12
2023-01-30T18:13:48.915Z,74.91
2023-01-30T18:15:57.464Z,74.92
2023-01-30T18:18:00.872Z,74.68
2023-01-30T18:20:04.437Z,74.46
2023-01-30T18:22:07.865Z,74.64
2023-01-30T18:24:11.659Z,74.57
2023-01-30T18:26:15.160Z,74.82
2023-01-30T18:28:18.952Z,74.74
2023-01-30T18:30:24.998Z,75.11
2023-01-30T18:32:28.671Z,75.55
2023-01-30T18:34:32.351Z,75.40
2023-01-30T18:36:36.606Z,75.51
2023-01-30T18:38:40.164Z,75.35
2023-01-30T18:40:43.599Z,75.13
2023-01-30T18:42:47.272Z,75.20
2023-01-30T18:44:50.886Z,75.22
2023-01-30T18:46:55.731Z,75.66
2023-01-30T18:48:59.579Z,75.85
2023-01-30T18:51:11.784Z,76.11
2023-01-30T18:53:15.308Z,76.53
2023-01-30T18:55:19.734Z,77.45
2023-01-30T18:57:23.101Z,77.22
2023-01-30T18:59:26.560Z,77.03
2023-01-30T19:01:31.977Z,76.72
2023-01-30T19:03:36.919Z,77.11
2023-01-30T19:05:40.333Z,76.62
2023-01-30T19:07:43.774Z,76.43
2023-01-30T19:09:47.809Z,76.81
2023-01-30T19:12:08.550Z,76.54
2023-01-30T19:14:14.314Z,77.08
2023-01-30T19:16:17.848Z,77.56
2023-01-30T19:18:21.282Z,77.54
2023-01-30T19:20:26.706Z,78.03
2023-01-30T19:22:30.396Z,77.69
2023-01-30T19:24:33.785Z,77.62
2023-01-30T19:26:37.229Z,78.01
2023-01-30T19:28:41.677Z,77.60
2023-01-30T19:30:45.139Z,77.64
2023-01-30T19:32:48.881Z,77.54
2023-01-30T19:34:52.505Z,78.08
2023-01-30T19:36:57.320Z,77.88
2023-01-30T19:39:01.670Z,78.44
2023-01-30T19:41:05.375Z,78.16
2023-01-30T19:43:11.146Z,78.08
2023-01-30T19:45:14.960Z,78.66
2023-01-30T19:47:21.755Z,78.71
2023-01-30T19:49:25.205Z,78.63
2023-01-30T19:51:30.169Z,78.66
2023-01-30T19:53:34.926Z,78.29
2023-01-30T19:55:38.421Z,79.59
2023-01-30T19:57:41.840Z,79.49
2023-01-30T19:59:45.375Z,79.86
2023-01-30T20:01:49.281Z,79.52
2023-01-30T20:03:52.736Z,79.53
2023-01-30T20:06:07.600Z,79.77
2023-01-30T20:08:25.517Z,80.41
2023-01-30T20:10:36.295Z,80.33
2023-01-30T20:12:39.692Z,80.23
2023-01-30T20:14:43.057Z,79.83
2023-01-30T20:16:46.592Z,79.87
2023-01-30T20:18:56.131Z,80.15
2023-01-30T20:21:06.104Z,80.20
2023-01-30T20:23:09.669Z,79.99
2023-01-30T20:25:13.086Z,80.27
2023-01-30T20:27:17.844Z,80.62
2023-01-30T20:29:21.455Z,80.65
2023-01-30T20:31:27.952Z,80.29
2023-01-30T20:33:32.392Z,80.14
2023-01-30T20:35:35.834Z,80.13
2023-01-30T20:37:39.281Z,80.21
2023-01-30T20:39:42.718Z,80.18
2023-01-30T20:41:46.193Z,80.12
2023-01-30T20:43:53.064Z,80.12
2023-01-30T20:46:04.668Z,79.82
2023-01-30T20:48:08.183Z,80.13
2023-01-30T20:50:13.720Z,80.19
2023-01-30T20:52:17.389Z,80.62
2023-01-30T20:54:23.131Z,80.79
2023-01-30T20:56:31.779Z,80.92
2023-01-30T20:58:35.445Z,80.63
2023-01-30T21:00:40.668Z,80.24
2023-01-30T21:02:48.403Z,79.87
2023-01-30T21:04:51.982Z,80.11
2023-01-30T21:06:55.614Z,79.57
2023-01-30T21:08:59.363Z,80.24
2023-01-30T21:11:07.801Z,79.98
2023-01-30T21:13:11.185Z,80.79
2023-01-30T21:15:14.660Z,80.44
2023-01-30T21:17:19.603Z,81.27
2023-01-30T21:19:22.998Z,80.60
2023-01-30T21:21:28.700Z,80.49
2023-01-30T21:23:32.559Z,80.44
2023-01-30T21:25:36.142Z,80.14
2023-01-30T21:27:40.734Z,80.15
2023-01-30T21:29:44.180Z,80.28
2023-01-30T21:31:48.058Z,80.13
2023-01-30T21:33:53.468Z,80.11
2023-01-30T21:35:59.623Z,80.18
2023-01-30T21:38:20.711Z,80.67
2023-01-30T21:40:41.715Z,81.00
2023-01-30T21:43:04.752Z,80.88
2023-01-30T21:45:09.328Z,81.00
2023-01-30T21:47:13.837Z,80.89
2023-01-30T21:49:19.980Z,81.15
2023-01-30T21:51:25.332Z,81.07
2023-01-30T21:53:28.713Z,81.00
2023-01-30T21:55:32.303Z,80.82
2023-01-30T21:57:35.799Z,80.81
2023-01-30T21:59:39.971Z,80.87
2023-01-30T22:01:44.032Z,81.78
2023-01-30T22:03:47.646Z,82.26
2023-01-30T22:05:52.451Z,82.23
2023-01-30T22:07:55.829Z,82.49
2023-01-30T22:10:01.424Z,82.85
2023-01-30T22:12:05.259Z,83.08
2023-01-30T22:14:08.667Z,83.10
2023-01-30T22:16:14.857Z,83.33
2023-01-30T22:18:18.251Z,83.54
2023-01-30T22:20:21.622Z,83.73
2023-01-30T22:22:27.798Z,83.03
2023-01-30T22:24:31.462Z,83.97
2023-01-30T22:26:35.224Z,83.24
2023-01-30T22:28:39.715Z,83.93
2023-01-30T22:30:43.104Z,83.64
2023-01-30T22:32:46.469Z,83.31
2023-01-30T22:34:49.892Z,83.41
2023-01-30T22:36:53.502Z,83.99
2023-01-30T22:38:58.581Z,82.93
2023-01-30T22:41:04.058Z,83.39
2023-01-30T22:43:07.461Z,83.98
2023-01-30T22:45:11.955Z,83.14
2023-01-30T22:47:18.046Z,83.77
2023-01-30T22:49:22.107Z,83.50
2023-01-30T22:51:26.816Z,82.91
2023-01-30T22:53:34.453Z,82.43
2023-01-30T22:55:39.344Z,82.66
2023-01-30T22:57:42.842Z,82.47
2023-01-30T22:59:46.228Z,82.81
2023-01-30T23:01:52.517Z,82.66
2023-01-30T23:03:58.241Z,83.16
2023-01-30T23:06:03.474Z,82.36
2023-01-30T23:08:06.891Z,82.65
2023-01-30T23:10:11.497Z,82.70
2023-01-30T23:12:33.817Z,82.49
2023-01-30T23:14:38.377Z,82.70
2023-01-30T23:16:43.840Z,82.00
2023-01-30T23:18:55.277Z,82.60
2023-01-30T23:20:59.200Z,82.83
2023-01-30T23:23:03.180Z,82.67
2023-01-30T23:25:08.936Z,82.29
2023-01-30T23:27:12.405Z,82.66
2023-01-30T23:29:18.911Z,81.99
2023-01-30T23:31:24.224Z,82.04
2023-01-30T23:33:27.909Z,81.97
2023-01-30T23:35:31.470Z,81.46
2023-01-30T23:37:52.491Z,82.10
2023-01-30T23:39:55.857Z,81.75
2023-01-30T23:42:00.602Z,81.76
2023-01-30T23:44:04.507Z,81.34
2023-01-30T23:46:15.589Z,81.41
2023-01-30T23:48:19.061Z,81.37
2023-01-30T23:50:22.498Z,81.60
2023-01-30T23:52:25.873Z,80.92
2023-01-30T23:54:29.466Z,81.26
2023-01-30T23:56:35.510Z,81.59
2023-01-30T23:58:39.970Z,81.46
